sensor_id;sensor_type;location;lat;lon;timestamp;P1;durP1;ratioP1;P2;durP2;ratioP2
34317;SDS011;20582;52.196;20.952;2022-10-31T00:00:11;58.08;;;35.47;;
34317;SDS011;20582;52.196;20.952;2022-10-31T00:02:38;58.22;;;37.20;;
34317;SDS011;20582;52.196;20.952;2022-10-31T00:05:03;56.05;;;34.67;;
34317;SDS011;20582;52.196;20.952;2022-10-31T00:07:29;61.55;;;34.65;;
34317;SDS011;20582;52.196;20.952;2022-10-31T00:09:55;55.22;;;34.22;;
34317;SDS011;20582;52.196;20.952;2022-10-31T00:12:21;49.38;;;33.15;;
34317;SDS011;20582;52.196;20.952;2022-10-31T00:14:47;63.28;;;33.13;;
34317;SDS011;20582;52.196;20.952;2022-10-31T00:17:13;55.08;;;34.80;;
34317;SDS011;20582;52.196;20.952;2022-10-31T00:19:39;56.70;;;34.92;;
34317;SDS011;20582;52.196;20.952;2022-10-31T00:22:05;54.25;;;34.95;;
34317;SDS011;20582;52.196;20.952;2022-10-31T00:24:31;51.40;;;32.78;;
34317;SDS011;20582;52.196;20.952;2022-10-31T00:26:57;51.00;;;34.42;;
34317;SDS011;20582;52.196;20.952;2022-10-31T00:29:23;58.15;;;38.22;;
34317;SDS011;20582;52.196;20.952;2022-10-31T00:31:49;57.08;;;36.80;;
34317;SDS011;20582;52.196;20.952;2022-10-31T00:34:15;55.20;;;37.00;;
34317;SDS011;20582;52.196;20.952;2022-10-31T00:36:41;62.60;;;35.53;;
34317;SDS011;20582;52.196;20.952;2022-10-31T00:39:09;56.08;;;34.00;;
34317;SDS011;20582;52.196;20.952;2022-10-31T00:41:35;58.35;;;36.35;;
34317;SDS011;20582;52.196;20.952;2022-10-31T00:44:01;65.90;;;44.25;;
34317;SDS011;20582;52.196;20.952;2022-10-31T00:46:27;58.67;;;37.95;;
34317;SDS011;20582;52.196;20.952;2022-10-31T00:48:53;57.75;;;37.97;;
34317;SDS011;20582;52.196;20.952;2022-10-31T00:51:19;58.92;;;36.33;;
34317;SDS011;20582;52.196;20.952;2022-10-31T00:53:45;56.38;;;35.33;;
34317;SDS011;20582;52.196;20.952;2022-10-31T00:56:11;56.72;;;36.05;;
34317;SDS011;20582;52.196;20.952;2022-10-31T00:58:37;55.45;;;36.72;;
34317;SDS011;20582;52.196;20.952;2022-10-31T01:01:03;54.50;;;35.53;;
34317;SDS011;20582;52.196;20.952;2022-10-31T01:03:30;52.38;;;35.45;;
34317;SDS011;20582;52.196;20.952;2022-10-31T01:06:04;53.80;;;34.60;;
34317;SDS011;20582;52.196;20.952;2022-10-31T01:08:30;57.25;;;36.85;;
34317;SDS011;20582;52.196;20.952;2022-10-31T01:13:25;47.72;;;31.85;;
34317;SDS011;20582;52.196;20.952;2022-10-31T01:15:55;51.50;;;34.53;;
34317;SDS011;20582;52.196;20.952;2022-10-31T01:18:21;49.28;;;31.73;;
34317;SDS011;20582;52.196;20.952;2022-10-31T01:20:47;54.58;;;33.83;;
34317;SDS011;20582;52.196;20.952;2022-10-31T01:23:22;53.47;;;34.13;;
34317;SDS011;20582;52.196;20.952;2022-10-31T01:25:48;55.13;;;35.88;;
34317;SDS011;20582;52.196;20.952;2022-10-31T01:28:13;55.13;;;34.58;;
34317;SDS011;20582;52.196;20.952;2022-10-31T01:30:39;54.63;;;35.95;;
34317;SDS011;20582;52.196;20.952;2022-10-31T01:33:05;55.28;;;35.55;;
34317;SDS011;20582;52.196;20.952;2022-10-31T01:35:31;52.88;;;35.22;;
34317;SDS011;20582;52.196;20.952;2022-10-31T01:37:57;53.88;;;34.90;;
34317;SDS011;20582;52.196;20.952;2022-10-31T01:40:23;55.10;;;36.97;;
34317;SDS011;20582;52.196;20.952;2022-10-31T01:42:49;52.83;;;33.63;;
34317;SDS011;20582;52.196;20.952;2022-10-31T01:45:16;55.45;;;35.92;;
34317;SDS011;20582;52.196;20.952;2022-10-31T01:47:43;55.05;;;36.35;;
34317;SDS011;20582;52.196;20.952;2022-10-31T01:50:13;55.00;;;35.72;;
34317;SDS011;20582;52.196;20.952;2022-10-31T01:52:43;53.95;;;34.72;;
34317;SDS011;20582;52.196;20.952;2022-10-31T01:55:18;56.10;;;35.88;;
34317;SDS011;20582;52.196;20.952;2022-10-31T01:57:46;55.50;;;35.38;;
34317;SDS011;20582;52.196;20.952;2022-10-31T02:00:14;56.47;;;35.05;;
34317;SDS011;20582;52.196;20.952;2022-10-31T02:02:41;54.95;;;35.45;;
34317;SDS011;20582;52.196;20.952;2022-10-31T02:05:08;58.00;;;35.30;;
34317;SDS011;20582;52.196;20.952;2022-10-31T02:07:46;52.28;;;34.25;;
34317;SDS011;20582;52.196;20.952;2022-10-31T02:10:15;54.05;;;34.60;;
34317;SDS011;20582;52.196;20.952;2022-10-31T02:12:42;56.08;;;35.83;;
34317;SDS011;20582;52.196;20.952;2022-10-31T02:15:08;58.53;;;36.58;;
34317;SDS011;20582;52.196;20.952;2022-10-31T02:17:34;56.13;;;35.88;;
34317;SDS011;20582;52.196;20.952;2022-10-31T02:20:05;56.22;;;35.03;;
34317;SDS011;20582;52.196;20.952;2022-10-31T02:28:52;60.25;;;39.08;;
34317;SDS011;20582;52.196;20.952;2022-10-31T02:33:41;57.25;;;35.97;;
34317;SDS011;20582;52.196;20.952;2022-10-31T02:44:00;54.70;;;35.92;;
34317;SDS011;20582;52.196;20.952;2022-10-31T02:46:32;57.35;;;35.78;;
34317;SDS011;20582;52.196;20.952;2022-10-31T02:49:02;60.17;;;35.83;;
34317;SDS011;20582;52.196;20.952;2022-10-31T02:51:31;61.25;;;36.95;;
34317;SDS011;20582;52.196;20.952;2022-10-31T02:53:57;54.70;;;35.13;;
34317;SDS011;20582;52.196;20.952;2022-10-31T02:56:23;52.15;;;32.97;;
34317;SDS011;20582;52.196;20.952;2022-10-31T03:03:57;54.80;;;36.38;;
34317;SDS011;20582;52.196;20.952;2022-10-31T03:06:32;52.83;;;32.37;;
34317;SDS011;20582;52.196;20.952;2022-10-31T03:17:29;55.55;;;35.50;;
34317;SDS011;20582;52.196;20.952;2022-10-31T03:19:59;58.72;;;38.22;;
34317;SDS011;20582;52.196;20.952;2022-10-31T03:22:27;54.70;;;36.67;;
34317;SDS011;20582;52.196;20.952;2022-10-31T03:24:55;57.30;;;36.30;;
34317;SDS011;20582;52.196;20.952;2022-10-31T03:27:23;55.47;;;37.13;;
34317;SDS011;20582;52.196;20.952;2022-10-31T03:29:50;60.72;;;38.92;;
34317;SDS011;20582;52.196;20.952;2022-10-31T03:32:18;58.80;;;37.75;;
34317;SDS011;20582;52.196;20.952;2022-10-31T03:34:45;57.85;;;37.97;;
34317;SDS011;20582;52.196;20.952;2022-10-31T03:37:13;60.45;;;39.90;;
34317;SDS011;20582;52.196;20.952;2022-10-31T03:39:40;60.53;;;39.15;;
34317;SDS011;20582;52.196;20.952;2022-10-31T03:42:25;63.53;;;40.13;;
34317;SDS011;20582;52.196;20.952;2022-10-31T03:44:56;54.05;;;36.05;;
34317;SDS011;20582;52.196;20.952;2022-10-31T03:47:23;50.58;;;34.70;;
34317;SDS011;20582;52.196;20.952;2022-10-31T03:49:50;55.58;;;33.55;;
34317;SDS011;20582;52.196;20.952;2022-10-31T03:52:30;55.17;;;33.97;;
34317;SDS011;20582;52.196;20.952;2022-10-31T03:54:58;52.15;;;32.85;;
34317;SDS011;20582;52.196;20.952;2022-10-31T03:57:43;53.40;;;35.72;;
34317;SDS011;20582;52.196;20.952;2022-10-31T04:00:13;55.15;;;35.65;;
34317;SDS011;20582;52.196;20.952;2022-10-31T04:02:40;54.88;;;33.95;;
34317;SDS011;20582;52.196;20.952;2022-10-31T04:05:08;50.55;;;33.30;;
34317;SDS011;20582;52.196;20.952;2022-10-31T04:07:37;56.58;;;35.13;;
34317;SDS011;20582;52.196;20.952;2022-10-31T04:10:04;57.17;;;34.90;;
34317;SDS011;20582;52.196;20.952;2022-10-31T04:12:31;56.75;;;36.83;;
34317;SDS011;20582;52.196;20.952;2022-10-31T04:14:58;58.85;;;34.70;;
34317;SDS011;20582;52.196;20.952;2022-10-31T04:17:25;51.08;;;34.97;;
34317;SDS011;20582;52.196;20.952;2022-10-31T04:19:53;52.08;;;34.40;;
34317;SDS011;20582;52.196;20.952;2022-10-31T04:22:19;53.20;;;35.65;;
34317;SDS011;20582;52.196;20.952;2022-10-31T04:24:45;50.03;;;32.78;;
34317;SDS011;20582;52.196;20.952;2022-10-31T04:27:11;52.75;;;35.20;;
34317;SDS011;20582;52.196;20.952;2022-10-31T04:29:37;50.65;;;34.35;;
34317;SDS011;20582;52.196;20.952;2022-10-31T04:32:03;56.20;;;35.80;;
34317;SDS011;20582;52.196;20.952;2022-10-31T04:34:29;52.88;;;36.78;;
34317;SDS011;20582;52.196;20.952;2022-10-31T04:36:55;57.42;;;36.53;;
34317;SDS011;20582;52.196;20.952;2022-10-31T04:39:21;59.17;;;37.40;;
34317;SDS011;20582;52.196;20.952;2022-10-31T04:41:47;54.00;;;36.47;;
34317;SDS011;20582;52.196;20.952;2022-10-31T04:44:13;57.00;;;37.80;;
34317;SDS011;20582;52.196;20.952;2022-10-31T04:46:39;57.70;;;35.47;;
34317;SDS011;20582;52.196;20.952;2022-10-31T04:49:05;61.70;;;38.10;;
34317;SDS011;20582;52.196;20.952;2022-10-31T04:51:32;52.20;;;34.00;;
34317;SDS011;20582;52.196;20.952;2022-10-31T04:53:58;52.95;;;35.22;;
34317;SDS011;20582;52.196;20.952;2022-10-31T04:56:24;56.38;;;34.22;;
34317;SDS011;20582;52.196;20.952;2022-10-31T04:58:50;52.92;;;34.75;;
34317;SDS011;20582;52.196;20.952;2022-10-31T05:01:16;55.80;;;35.90;;
34317;SDS011;20582;52.196;20.952;2022-10-31T05:03:42;57.85;;;36.78;;
34317;SDS011;20582;52.196;20.952;2022-10-31T05:06:08;66.88;;;42.28;;
34317;SDS011;20582;52.196;20.952;2022-10-31T05:08:34;58.00;;;37.50;;
34317;SDS011;20582;52.196;20.952;2022-10-31T05:11:00;55.55;;;36.83;;
34317;SDS011;20582;52.196;20.952;2022-10-31T05:13:27;57.70;;;37.30;;
34317;SDS011;20582;52.196;20.952;2022-10-31T05:15:53;57.80;;;38.33;;
34317;SDS011;20582;52.196;20.952;2022-10-31T05:18:19;56.75;;;36.47;;
34317;SDS011;20582;52.196;20.952;2022-10-31T05:20:45;58.85;;;38.03;;
34317;SDS011;20582;52.196;20.952;2022-10-31T05:23:12;61.60;;;35.15;;
34317;SDS011;20582;52.196;20.952;2022-10-31T05:25:39;53.63;;;33.28;;
34317;SDS011;20582;52.196;20.952;2022-10-31T05:28:05;47.30;;;33.50;;
34317;SDS011;20582;52.196;20.952;2022-10-31T05:30:32;48.28;;;31.30;;
34317;SDS011;20582;52.196;20.952;2022-10-31T05:32:58;50.58;;;32.72;;
34317;SDS011;20582;52.196;20.952;2022-10-31T05:35:28;51.25;;;31.42;;
34317;SDS011;20582;52.196;20.952;2022-10-31T05:37:55;52.58;;;33.42;;
34317;SDS011;20582;52.196;20.952;2022-10-31T05:40:22;49.47;;;30.75;;
34317;SDS011;20582;52.196;20.952;2022-10-31T05:42:50;46.30;;;31.55;;
34317;SDS011;20582;52.196;20.952;2022-10-31T05:45:17;54.00;;;33.60;;
34317;SDS011;20582;52.196;20.952;2022-10-31T05:47:50;49.22;;;32.38;;
34317;SDS011;20582;52.196;20.952;2022-10-31T05:50:16;48.33;;;31.00;;
34317;SDS011;20582;52.196;20.952;2022-10-31T05:52:42;47.83;;;29.50;;
34317;SDS011;20582;52.196;20.952;2022-10-31T05:55:08;49.42;;;31.58;;
34317;SDS011;20582;52.196;20.952;2022-10-31T05:57:34;53.28;;;32.45;;
34317;SDS011;20582;52.196;20.952;2022-10-31T06:00:01;50.42;;;30.60;;
34317;SDS011;20582;52.196;20.952;2022-10-31T06:02:28;50.47;;;31.10;;
34317;SDS011;20582;52.196;20.952;2022-10-31T06:04:59;45.10;;;30.45;;
34317;SDS011;20582;52.196;20.952;2022-10-31T06:07:25;47.22;;;28.85;;
34317;SDS011;20582;52.196;20.952;2022-10-31T06:09:51;46.53;;;30.50;;
34317;SDS011;20582;52.196;20.952;2022-10-31T06:12:17;45.50;;;29.30;;
34317;SDS011;20582;52.196;20.952;2022-10-31T06:14:43;48.42;;;30.85;;
34317;SDS011;20582;52.196;20.952;2022-10-31T06:17:09;46.15;;;29.55;;
34317;SDS011;20582;52.196;20.952;2022-10-31T06:19:35;43.63;;;29.17;;
34317;SDS011;20582;52.196;20.952;2022-10-31T06:22:01;47.97;;;30.60;;
34317;SDS011;20582;52.196;20.952;2022-10-31T06:24:27;46.08;;;29.08;;
34317;SDS011;20582;52.196;20.952;2022-10-31T06:26:53;46.40;;;30.52;;
34317;SDS011;20582;52.196;20.952;2022-10-31T06:29:19;44.90;;;30.20;;
34317;SDS011;20582;52.196;20.952;2022-10-31T06:31:45;43.92;;;28.90;;
34317;SDS011;20582;52.196;20.952;2022-10-31T06:34:11;44.88;;;29.40;;
34317;SDS011;20582;52.196;20.952;2022-10-31T06:36:37;42.83;;;26.58;;
34317;SDS011;20582;52.196;20.952;2022-10-31T06:39:03;38.08;;;24.00;;
34317;SDS011;20582;52.196;20.952;2022-10-31T06:41:29;39.63;;;24.95;;
34317;SDS011;20582;52.196;20.952;2022-10-31T06:43:55;42.83;;;25.30;;
34317;SDS011;20582;52.196;20.952;2022-10-31T06:46:20;42.08;;;25.55;;
34317;SDS011;20582;52.196;20.952;2022-10-31T06:48:46;44.08;;;27.55;;
34317;SDS011;20582;52.196;20.952;2022-10-31T06:51:12;38.38;;;25.58;;
34317;SDS011;20582;52.196;20.952;2022-10-31T06:53:38;37.10;;;24.60;;
34317;SDS011;20582;52.196;20.952;2022-10-31T06:56:04;40.20;;;24.98;;
34317;SDS011;20582;52.196;20.952;2022-10-31T06:58:30;39.90;;;25.92;;
34317;SDS011;20582;52.196;20.952;2022-10-31T07:00:58;45.70;;;27.73;;
34317;SDS011;20582;52.196;20.952;2022-10-31T07:03:25;42.50;;;26.38;;
34317;SDS011;20582;52.196;20.952;2022-10-31T07:05:51;42.58;;;27.05;;
34317;SDS011;20582;52.196;20.952;2022-10-31T07:08:17;39.95;;;26.73;;
34317;SDS011;20582;52.196;20.952;2022-10-31T07:10:43;39.92;;;25.20;;
34317;SDS011;20582;52.196;20.952;2022-10-31T07:13:16;37.70;;;23.90;;
34317;SDS011;20582;52.196;20.952;2022-10-31T07:15:42;35.47;;;21.60;;
34317;SDS011;20582;52.196;20.952;2022-10-31T07:18:09;32.17;;;21.85;;
34317;SDS011;20582;52.196;20.952;2022-10-31T07:20:36;33.40;;;20.85;;
34317;SDS011;20582;52.196;20.952;2022-10-31T07:23:02;36.15;;;22.15;;
34317;SDS011;20582;52.196;20.952;2022-10-31T07:25:29;38.40;;;24.27;;
34317;SDS011;20582;52.196;20.952;2022-10-31T07:27:55;39.22;;;20.85;;
34317;SDS011;20582;52.196;20.952;2022-10-31T07:30:21;35.25;;;20.60;;
34317;SDS011;20582;52.196;20.952;2022-10-31T07:32:48;36.55;;;19.65;;
34317;SDS011;20582;52.196;20.952;2022-10-31T07:35:15;36.63;;;20.70;;
34317;SDS011;20582;52.196;20.952;2022-10-31T07:37:41;32.35;;;19.67;;
34317;SDS011;20582;52.196;20.952;2022-10-31T07:40:07;36.25;;;20.25;;
34317;SDS011;20582;52.196;20.952;2022-10-31T07:42:41;35.45;;;21.52;;
34317;SDS011;20582;52.196;20.952;2022-10-31T07:45:11;33.67;;;21.13;;
34317;SDS011;20582;52.196;20.952;2022-10-31T07:47:45;47.47;;;28.00;;
34317;SDS011;20582;52.196;20.952;2022-10-31T07:50:12;33.65;;;21.25;;
34317;SDS011;20582;52.196;20.952;2022-10-31T07:52:39;34.10;;;20.70;;
34317;SDS011;20582;52.196;20.952;2022-10-31T07:55:05;29.77;;;18.02;;
34317;SDS011;20582;52.196;20.952;2022-10-31T07:57:32;29.30;;;16.27;;
34317;SDS011;20582;52.196;20.952;2022-10-31T07:59:57;27.55;;;17.52;;
34317;SDS011;20582;52.196;20.952;2022-10-31T08:02:24;28.27;;;17.02;;
34317;SDS011;20582;52.196;20.952;2022-10-31T08:04:53;23.80;;;15.63;;
34317;SDS011;20582;52.196;20.952;2022-10-31T08:07:19;23.27;;;15.50;;
34317;SDS011;20582;52.196;20.952;2022-10-31T08:09:46;22.02;;;15.90;;
34317;SDS011;20582;52.196;20.952;2022-10-31T08:12:12;26.80;;;16.70;;
34317;SDS011;20582;52.196;20.952;2022-10-31T08:14:37;24.08;;;15.95;;
34317;SDS011;20582;52.196;20.952;2022-10-31T08:17:03;24.05;;;15.50;;
34317;SDS011;20582;52.196;20.952;2022-10-31T08:19:29;20.67;;;14.52;;
34317;SDS011;20582;52.196;20.952;2022-10-31T08:21:55;23.02;;;15.20;;
34317;SDS011;20582;52.196;20.952;2022-10-31T08:24:22;23.92;;;14.95;;
34317;SDS011;20582;52.196;20.952;2022-10-31T08:26:48;20.23;;;14.52;;
34317;SDS011;20582;52.196;20.952;2022-10-31T08:29:14;21.50;;;14.73;;
34317;SDS011;20582;52.196;20.952;2022-10-31T08:31:41;22.42;;;14.80;;
34317;SDS011;20582;52.196;20.952;2022-10-31T08:34:07;23.77;;;16.15;;
34317;SDS011;20582;52.196;20.952;2022-10-31T08:36:33;27.63;;;18.23;;
34317;SDS011;20582;52.196;20.952;2022-10-31T08:38:59;25.80;;;17.42;;
34317;SDS011;20582;52.196;20.952;2022-10-31T08:41:25;23.00;;;16.63;;
34317;SDS011;20582;52.196;20.952;2022-10-31T08:43:51;28.40;;;17.90;;
34317;SDS011;20582;52.196;20.952;2022-10-31T08:46:17;23.48;;;17.20;;
34317;SDS011;20582;52.196;20.952;2022-10-31T08:48:43;24.80;;;17.70;;
34317;SDS011;20582;52.196;20.952;2022-10-31T08:51:09;23.30;;;16.40;;
34317;SDS011;20582;52.196;20.952;2022-10-31T08:53:36;23.40;;;16.85;;
34317;SDS011;20582;52.196;20.952;2022-10-31T08:56:02;25.27;;;16.80;;
34317;SDS011;20582;52.196;20.952;2022-10-31T08:58:28;27.13;;;17.20;;
34317;SDS011;20582;52.196;20.952;2022-10-31T09:00:54;28.17;;;18.50;;
34317;SDS011;20582;52.196;20.952;2022-10-31T09:03:25;25.60;;;18.08;;
34317;SDS011;20582;52.196;20.952;2022-10-31T09:05:55;27.13;;;18.15;;
34317;SDS011;20582;52.196;20.952;2022-10-31T09:08:21;24.52;;;16.85;;
34317;SDS011;20582;52.196;20.952;2022-10-31T09:10:47;25.70;;;17.98;;
34317;SDS011;20582;52.196;20.952;2022-10-31T09:13:20;25.67;;;18.45;;
34317;SDS011;20582;52.196;20.952;2022-10-31T09:15:48;26.05;;;18.42;;
34317;SDS011;20582;52.196;20.952;2022-10-31T09:18:15;26.13;;;18.02;;
34317;SDS011;20582;52.196;20.952;2022-10-31T09:20:42;24.00;;;17.65;;
34317;SDS011;20582;52.196;20.952;2022-10-31T09:23:11;24.27;;;18.15;;
34317;SDS011;20582;52.196;20.952;2022-10-31T09:25:38;26.95;;;18.23;;
34317;SDS011;20582;52.196;20.952;2022-10-31T09:28:05;26.80;;;18.33;;
34317;SDS011;20582;52.196;20.952;2022-10-31T09:30:32;30.70;;;19.23;;
34317;SDS011;20582;52.196;20.952;2022-10-31T09:32:59;28.25;;;19.48;;
34317;SDS011;20582;52.196;20.952;2022-10-31T09:35:25;28.08;;;19.80;;
34317;SDS011;20582;52.196;20.952;2022-10-31T09:40:27;26.83;;;18.67;;
34317;SDS011;20582;52.196;20.952;2022-10-31T09:45:25;22.42;;;17.55;;
34317;SDS011;20582;52.196;20.952;2022-10-31T09:50:22;22.77;;;17.33;;
34317;SDS011;20582;52.196;20.952;2022-10-31T09:52:54;23.23;;;17.50;;
34317;SDS011;20582;52.196;20.952;2022-10-31T09:55:36;22.80;;;17.88;;
34317;SDS011;20582;52.196;20.952;2022-10-31T09:58:02;23.05;;;17.88;;
34317;SDS011;20582;52.196;20.952;2022-10-31T10:00:29;25.15;;;18.15;;
34317;SDS011;20582;52.196;20.952;2022-10-31T10:03:03;21.63;;;17.20;;
34317;SDS011;20582;52.196;20.952;2022-10-31T10:05:43;25.33;;;19.27;;
34317;SDS011;20582;52.196;20.952;2022-10-31T10:08:12;23.73;;;18.27;;
34317;SDS011;20582;52.196;20.952;2022-10-31T10:10:47;22.17;;;18.05;;
34317;SDS011;20582;52.196;20.952;2022-10-31T10:16:00;22.25;;;18.95;;
34317;SDS011;20582;52.196;20.952;2022-10-31T10:26:15;26.27;;;19.43;;
34317;SDS011;20582;52.196;20.952;2022-10-31T10:28:41;25.10;;;19.67;;
34317;SDS011;20582;52.196;20.952;2022-10-31T10:31:16;26.08;;;19.35;;
34317;SDS011;20582;52.196;20.952;2022-10-31T10:36:12;23.65;;;19.52;;
34317;SDS011;20582;52.196;20.952;2022-10-31T10:38:47;25.95;;;19.83;;
34317;SDS011;20582;52.196;20.952;2022-10-31T10:41:19;23.73;;;18.77;;
34317;SDS011;20582;52.196;20.952;2022-10-31T10:43:45;26.02;;;20.35;;
34317;SDS011;20582;52.196;20.952;2022-10-31T10:49:42;25.80;;;20.73;;
34317;SDS011;20582;52.196;20.952;2022-10-31T10:57:17;31.20;;;22.05;;
34317;SDS011;20582;52.196;20.952;2022-10-31T10:59:46;29.73;;;23.00;;
34317;SDS011;20582;52.196;20.952;2022-10-31T11:02:16;29.92;;;21.95;;
34317;SDS011;20582;52.196;20.952;2022-10-31T11:04:42;33.90;;;22.92;;
34317;SDS011;20582;52.196;20.952;2022-10-31T11:07:09;34.92;;;25.10;;
34317;SDS011;20582;52.196;20.952;2022-10-31T11:09:36;34.42;;;23.92;;
34317;SDS011;20582;52.196;20.952;2022-10-31T11:12:07;34.97;;;24.60;;
34317;SDS011;20582;52.196;20.952;2022-10-31T11:14:42;33.40;;;23.13;;
34317;SDS011;20582;52.196;20.952;2022-10-31T11:17:11;31.13;;;22.42;;
34317;SDS011;20582;52.196;20.952;2022-10-31T11:19:41;33.70;;;23.35;;
34317;SDS011;20582;52.196;20.952;2022-10-31T11:22:08;31.95;;;22.40;;
34317;SDS011;20582;52.196;20.952;2022-10-31T11:24:43;34.65;;;23.42;;
34317;SDS011;20582;52.196;20.952;2022-10-31T11:29:42;38.80;;;25.55;;
34317;SDS011;20582;52.196;20.952;2022-10-31T11:32:21;35.47;;;23.92;;
34317;SDS011;20582;52.196;20.952;2022-10-31T11:34:49;36.03;;;23.85;;
34317;SDS011;20582;52.196;20.952;2022-10-31T11:39:43;37.72;;;24.40;;
34317;SDS011;20582;52.196;20.952;2022-10-31T11:42:10;33.47;;;23.70;;
34317;SDS011;20582;52.196;20.952;2022-10-31T11:44:37;39.85;;;25.27;;
34317;SDS011;20582;52.196;20.952;2022-10-31T11:47:10;36.05;;;25.67;;
34317;SDS011;20582;52.196;20.952;2022-10-31T11:49:40;41.60;;;25.48;;
34317;SDS011;20582;52.196;20.952;2022-10-31T11:52:08;34.97;;;24.85;;
34317;SDS011;20582;52.196;20.952;2022-10-31T11:54:41;37.20;;;24.88;;
34317;SDS011;20582;52.196;20.952;2022-10-31T11:57:24;33.22;;;23.95;;
34317;SDS011;20582;52.196;20.952;2022-10-31T11:59:52;33.13;;;22.92;;
34317;SDS011;20582;52.196;20.952;2022-10-31T12:02:19;30.50;;;23.58;;
34317;SDS011;20582;52.196;20.952;2022-10-31T12:04:46;30.30;;;22.15;;
34317;SDS011;20582;52.196;20.952;2022-10-31T12:07:14;33.17;;;23.08;;
34317;SDS011;20582;52.196;20.952;2022-10-31T12:09:40;31.85;;;23.15;;
34317;SDS011;20582;52.196;20.952;2022-10-31T12:17:18;32.90;;;23.40;;
34317;SDS011;20582;52.196;20.952;2022-10-31T12:19:59;32.03;;;23.63;;
34317;SDS011;20582;52.196;20.952;2022-10-31T12:25:26;36.30;;;26.40;;
34317;SDS011;20582;52.196;20.952;2022-10-31T12:28:13;34.72;;;24.63;;
34317;SDS011;20582;52.196;20.952;2022-10-31T12:36:22;36.70;;;25.85;;
34317;SDS011;20582;52.196;20.952;2022-10-31T12:39:11;36.28;;;25.60;;
34317;SDS011;20582;52.196;20.952;2022-10-31T12:44:25;38.47;;;25.70;;
34317;SDS011;20582;52.196;20.952;2022-10-31T12:52:09;33.63;;;24.88;;
34317;SDS011;20582;52.196;20.952;2022-10-31T12:59:53;33.03;;;24.13;;
34317;SDS011;20582;52.196;20.952;2022-10-31T13:02:23;32.53;;;23.42;;
34317;SDS011;20582;52.196;20.952;2022-10-31T13:04:57;36.95;;;26.25;;
34317;SDS011;20582;52.196;20.952;2022-10-31T13:07:26;32.90;;;24.85;;
34317;SDS011;20582;52.196;20.952;2022-10-31T13:09:55;35.70;;;25.45;;
34317;SDS011;20582;52.196;20.952;2022-10-31T13:12:23;38.80;;;26.52;;
34317;SDS011;20582;52.196;20.952;2022-10-31T13:14:54;36.88;;;26.02;;
34317;SDS011;20582;52.196;20.952;2022-10-31T13:19:50;41.63;;;27.63;;
34317;SDS011;20582;52.196;20.952;2022-10-31T13:22:28;39.72;;;27.83;;
34317;SDS011;20582;52.196;20.952;2022-10-31T13:25:02;41.42;;;28.45;;
34317;SDS011;20582;52.196;20.952;2022-10-31T13:27:33;40.40;;;27.42;;
34317;SDS011;20582;52.196;20.952;2022-10-31T13:32:28;45.05;;;30.00;;
34317;SDS011;20582;52.196;20.952;2022-10-31T13:34:55;47.25;;;29.90;;
34317;SDS011;20582;52.196;20.952;2022-10-31T13:45:17;48.03;;;29.25;;
34317;SDS011;20582;52.196;20.952;2022-10-31T13:47:54;49.72;;;30.20;;
34317;SDS011;20582;52.196;20.952;2022-10-31T13:50:24;47.90;;;30.20;;
34317;SDS011;20582;52.196;20.952;2022-10-31T13:52:50;47.67;;;29.47;;
34317;SDS011;20582;52.196;20.952;2022-10-31T13:58:03;48.72;;;30.13;;
34317;SDS011;20582;52.196;20.952;2022-10-31T14:00:30;46.58;;;30.10;;
34317;SDS011;20582;52.196;20.952;2022-10-31T14:02:59;50.13;;;30.02;;
34317;SDS011;20582;52.196;20.952;2022-10-31T14:05:32;51.55;;;30.58;;
34317;SDS011;20582;52.196;20.952;2022-10-31T14:08:00;52.35;;;31.05;;
34317;SDS011;20582;52.196;20.952;2022-10-31T14:10:35;50.60;;;29.98;;
34317;SDS011;20582;52.196;20.952;2022-10-31T14:13:08;56.40;;;30.52;;
34317;SDS011;20582;52.196;20.952;2022-10-31T14:15:40;49.92;;;31.33;;
34317;SDS011;20582;52.196;20.952;2022-10-31T14:18:19;48.40;;;30.45;;
34317;SDS011;20582;52.196;20.952;2022-10-31T14:20:47;47.88;;;30.27;;
34317;SDS011;20582;52.196;20.952;2022-10-31T14:28:43;50.42;;;30.15;;
34317;SDS011;20582;52.196;20.952;2022-10-31T14:39:20;54.97;;;32.45;;
34317;SDS011;20582;52.196;20.952;2022-10-31T14:49:34;64.65;;;35.13;;
34317;SDS011;20582;52.196;20.952;2022-10-31T14:52:05;68.78;;;35.33;;
34317;SDS011;20582;52.196;20.952;2022-10-31T14:54:33;68.18;;;34.47;;
34317;SDS011;20582;52.196;20.952;2022-10-31T14:57:02;74.47;;;37.08;;
34317;SDS011;20582;52.196;20.952;2022-10-31T14:59:30;76.68;;;37.05;;
34317;SDS011;20582;52.196;20.952;2022-10-31T15:01:58;83.55;;;40.05;;
34317;SDS011;20582;52.196;20.952;2022-10-31T15:04:26;83.60;;;39.28;;
34317;SDS011;20582;52.196;20.952;2022-10-31T15:09:29;76.93;;;38.60;;
34317;SDS011;20582;52.196;20.952;2022-10-31T15:11:55;81.18;;;38.05;;
34317;SDS011;20582;52.196;20.952;2022-10-31T15:14:23;76.50;;;36.63;;
34317;SDS011;20582;52.196;20.952;2022-10-31T15:16:49;73.80;;;37.08;;
34317;SDS011;20582;52.196;20.952;2022-10-31T15:19:17;71.63;;;35.50;;
34317;SDS011;20582;52.196;20.952;2022-10-31T15:21:44;80.18;;;37.42;;
34317;SDS011;20582;52.196;20.952;2022-10-31T15:24:11;75.40;;;36.50;;
34317;SDS011;20582;52.196;20.952;2022-10-31T15:26:39;78.25;;;37.28;;
34317;SDS011;20582;52.196;20.952;2022-10-31T15:29:11;79.57;;;36.63;;
34317;SDS011;20582;52.196;20.952;2022-10-31T15:31:38;85.13;;;37.20;;
34317;SDS011;20582;52.196;20.952;2022-10-31T15:34:12;82.45;;;38.83;;
34317;SDS011;20582;52.196;20.952;2022-10-31T15:36:40;79.32;;;36.60;;
34317;SDS011;20582;52.196;20.952;2022-10-31T15:39:09;91.57;;;39.20;;
34317;SDS011;20582;52.196;20.952;2022-10-31T15:41:47;87.03;;;37.22;;
34317;SDS011;20582;52.196;20.952;2022-10-31T15:44:15;81.13;;;38.55;;
34317;SDS011;20582;52.196;20.952;2022-10-31T15:46:41;86.35;;;39.63;;
34317;SDS011;20582;52.196;20.952;2022-10-31T15:49:29;86.00;;;39.22;;
34317;SDS011;20582;52.196;20.952;2022-10-31T15:51:56;88.75;;;37.85;;
34317;SDS011;20582;52.196;20.952;2022-10-31T15:54:28;90.45;;;41.28;;
34317;SDS011;20582;52.196;20.952;2022-10-31T15:56:54;83.72;;;38.25;;
34317;SDS011;20582;52.196;20.952;2022-10-31T15:59:22;77.97;;;38.28;;
34317;SDS011;20582;52.196;20.952;2022-10-31T16:01:58;83.35;;;38.13;;
34317;SDS011;20582;52.196;20.952;2022-10-31T16:04:24;76.00;;;37.72;;
34317;SDS011;20582;52.196;20.952;2022-10-31T16:06:58;74.40;;;37.30;;
34317;SDS011;20582;52.196;20.952;2022-10-31T16:09:25;79.15;;;37.63;;
34317;SDS011;20582;52.196;20.952;2022-10-31T16:11:51;84.00;;;40.40;;
34317;SDS011;20582;52.196;20.952;2022-10-31T16:14:17;77.47;;;37.95;;
34317;SDS011;20582;52.196;20.952;2022-10-31T16:16:54;89.90;;;40.67;;
34317;SDS011;20582;52.196;20.952;2022-10-31T16:19:21;72.00;;;34.92;;
34317;SDS011;20582;52.196;20.952;2022-10-31T16:21:49;82.13;;;39.47;;
34317;SDS011;20582;52.196;20.952;2022-10-31T16:24:17;80.45;;;39.55;;
34317;SDS011;20582;52.196;20.952;2022-10-31T16:26:54;80.15;;;40.42;;